sensor_id;sensor_type;location;lat;lon;timestamp;pressure;altitude;pressure_sealevel;temperature;humidity
20987;BME280;10652;50.306;8.570;2023-07-08T00:02:52;98158.06;;;15.32;65.74
20987;BME280;10652;50.306;8.570;2023-07-08T00:06:54;98169.28;;;15.35;66.47
20987;BME280;10652;50.306;8.570;2023-07-08T00:10:57;98166.78;;;15.34;66.19
20987;BME280;10652;50.306;8.570;2023-07-08T00:15:00;98167.72;;;15.33;66.77
20987;BME280;10652;50.306;8.570;2023-07-08T00:19:07;98163.94;;;15.23;66.53
20987;BME280;10652;50.306;8.570;2023-07-08T00:23:11;98152.53;;;15.08;67.20
20987;BME280;10652;50.306;8.570;2023-07-08T00:27:13;98149.44;;;15.02;68.16
20987;BME280;10652;50.306;8.570;2023-07-08T00:31:15;98151.31;;;15.00;68.26
20987;BME280;10652;50.306;8.570;2023-07-08T00:35:17;98156.63;;;15.00;68.75
20987;BME280;10652;50.306;8.570;2023-07-08T00:39:21;98160.69;;;15.05;68.48
20987;BME280;10652;50.306;8.570;2023-07-08T00:43:52;98150.97;;;14.92;68.42
20987;BME280;10652;50.306;8.570;2023-07-08T00:47:52;98140.13;;;14.68;70.71
20987;BME280;10652;50.306;8.570;2023-07-08T00:51:55;98147.03;;;14.70;71.65
20987;BME280;10652;50.306;8.570;2023-07-08T01:00:07;98152.47;;;14.81;71.57
20987;BME280;10652;50.306;8.570;2023-07-08T01:04:20;98153.81;;;14.88;71.48
20987;BME280;10652;50.306;8.570;2023-07-08T01:08:26;98154.81;;;15.00;71.82
20987;BME280;10652;50.306;8.570;2023-07-08T01:12:34;98152.06;;;15.16;71.07
20987;BME280;10652;50.306;8.570;2023-07-08T01:16:38;98156.78;;;15.25;70.21
20987;BME280;10652;50.306;8.570;2023-07-08T01:20:41;98153.19;;;15.26;69.54
20987;BME280;10652;50.306;8.570;2023-07-08T01:24:44;98162.66;;;15.16;69.99
20987;BME280;10652;50.306;8.570;2023-07-08T01:28:46;98157.09;;;15.06;69.87
20987;BME280;10652;50.306;8.570;2023-07-08T01:32:55;98151.25;;;14.87;70.84
20987;BME280;10652;50.306;8.570;2023-07-08T01:36:59;98160.13;;;14.86;71.59
20987;BME280;10652;50.306;8.570;2023-07-08T01:41:03;98159.69;;;14.79;72.00
20987;BME280;10652;50.306;8.570;2023-07-08T01:45:26;98158.34;;;14.72;72.54
20987;BME280;10652;50.306;8.570;2023-07-08T01:49:29;98155.69;;;14.72;72.89
20987;BME280;10652;50.306;8.570;2023-07-08T01:53:38;98146.16;;;14.70;73.58
20987;BME280;10652;50.306;8.570;2023-07-08T01:57:40;98139.09;;;14.70;73.71
20987;BME280;10652;50.306;8.570;2023-07-08T02:01:42;98126.88;;;14.68;74.01
20987;BME280;10652;50.306;8.570;2023-07-08T02:05:44;98129.06;;;14.75;74.01
20987;BME280;10652;50.306;8.570;2023-07-08T02:09:47;98127.94;;;14.79;74.26
20987;BME280;10652;50.306;8.570;2023-07-08T02:13:49;98126.78;;;14.98;73.72
20987;BME280;10652;50.306;8.570;2023-07-08T02:17:51;98120.13;;;15.05;73.38
20987;BME280;10652;50.306;8.570;2023-07-08T02:21:55;98117.19;;;15.09;72.92
20987;BME280;10652;50.306;8.570;2023-07-08T02:25:57;98126.94;;;15.09;73.14
20987;BME280;10652;50.306;8.570;2023-07-08T02:29:59;98125.78;;;15.13;73.36
20987;BME280;10652;50.306;8.570;2023-07-08T02:34:02;98128.81;;;15.21;73.05
20987;BME280;10652;50.306;8.570;2023-07-08T02:38:04;98121.41;;;15.26;72.49
20987;BME280;10652;50.306;8.570;2023-07-08T02:42:06;98115.19;;;15.13;72.37
20987;BME280;10652;50.306;8.570;2023-07-08T02:46:08;98113.84;;;14.93;73.58
20987;BME280;10652;50.306;8.570;2023-07-08T02:50:11;98102.44;;;14.78;74.32
20987;BME280;10652;50.306;8.570;2023-07-08T02:54:13;98115.66;;;14.78;75.10
20987;BME280;10652;50.306;8.570;2023-07-08T02:58:15;98118.78;;;14.85;75.25
20987;BME280;10652;50.306;8.570;2023-07-08T03:02:17;98124.16;;;14.83;74.70
20987;BME280;10652;50.306;8.570;2023-07-08T03:06:20;98126.72;;;14.85;75.10
20987;BME280;10652;50.306;8.570;2023-07-08T03:10:23;98128.38;;;14.86;74.97
20987;BME280;10652;50.306;8.570;2023-07-08T03:14:25;98137.94;;;14.88;74.81
20987;BME280;10652;50.306;8.570;2023-07-08T03:18:28;98145.09;;;14.86;74.73
20987;BME280;10652;50.306;8.570;2023-07-08T03:22:30;98141.91;;;14.81;74.42
20987;BME280;10652;50.306;8.570;2023-07-08T03:26:32;98146.44;;;14.65;75.05
20987;BME280;10652;50.306;8.570;2023-07-08T03:30:36;98143.44;;;14.71;75.40
20987;BME280;10652;50.306;8.570;2023-07-08T03:34:39;98144.94;;;14.89;75.28
20987;BME280;10652;50.306;8.570;2023-07-08T03:38:41;98139.31;;;15.08;74.37
20987;BME280;10652;50.306;8.570;2023-07-08T03:42:46;98155.44;;;15.18;73.79
20987;BME280;10652;50.306;8.570;2023-07-08T03:46:49;98163.78;;;15.26;73.04
20987;BME280;10652;50.306;8.570;2023-07-08T03:50:53;98162.72;;;15.28;72.90
20987;BME280;10652;50.306;8.570;2023-07-08T03:54:55;98162.25;;;15.22;71.98
20987;BME280;10652;50.306;8.570;2023-07-08T03:58:58;98159.47;;;14.97;72.27
20987;BME280;10652;50.306;8.570;2023-07-08T04:03:01;98150.00;;;15.07;73.59
20987;BME280;10652;50.306;8.570;2023-07-08T04:07:04;98152.00;;;16.23;71.17
20987;BME280;10652;50.306;8.570;2023-07-08T04:11:08;98153.16;;;16.19;68.27
20987;BME280;10652;50.306;8.570;2023-07-08T04:15:12;98147.31;;;16.01;68.45
20987;BME280;10652;50.306;8.570;2023-07-08T04:19:15;98157.81;;;17.40;67.17
20987;BME280;10652;50.306;8.570;2023-07-08T04:23:18;98158.66;;;17.53;63.16
20987;BME280;10652;50.306;8.570;2023-07-08T04:27:21;98165.25;;;17.35;63.32
20987;BME280;10652;50.306;8.570;2023-07-08T04:31:23;98168.25;;;19.05;62.56
20987;BME280;10652;50.306;8.570;2023-07-08T04:35:25;98160.06;;;21.97;54.46
20987;BME280;10652;50.306;8.570;2023-07-08T04:39:27;98149.59;;;24.16;48.37
20987;BME280;10652;50.306;8.570;2023-07-08T04:43:29;98154.41;;;25.75;43.68
20987;BME280;10652;50.306;8.570;2023-07-08T04:47:31;98155.09;;;27.06;40.59
20987;BME280;10652;50.306;8.570;2023-07-08T04:51:36;98156.53;;;27.17;38.71
20987;BME280;10652;50.306;8.570;2023-07-08T04:55:45;98148.78;;;26.10;39.43
20987;BME280;10652;50.306;8.570;2023-07-08T04:59:48;98150.59;;;25.02;40.52
20987;BME280;10652;50.306;8.570;2023-07-08T05:03:50;98155.06;;;24.06;41.86
20987;BME280;10652;50.306;8.570;2023-07-08T05:07:53;98152.44;;;22.97;43.21
20987;BME280;10652;50.306;8.570;2023-07-08T05:11:55;98147.63;;;21.67;44.96
20987;BME280;10652;50.306;8.570;2023-07-08T05:15:57;98155.56;;;20.89;46.90
20987;BME280;10652;50.306;8.570;2023-07-08T05:19:59;98158.69;;;20.73;47.93
20987;BME280;10652;50.306;8.570;2023-07-08T05:24:04;98162.13;;;20.64;48.89
20987;BME280;10652;50.306;8.570;2023-07-08T05:28:06;98158.75;;;20.62;48.71
20987;BME280;10652;50.306;8.570;2023-07-08T05:32:08;98165.28;;;20.99;48.98
20987;BME280;10652;50.306;8.570;2023-07-08T05:36:10;98155.22;;;22.58;47.31
20987;BME280;10652;50.306;8.570;2023-07-08T05:40:13;98164.59;;;26.46;42.41
20987;BME280;10652;50.306;8.570;2023-07-08T05:44:15;98168.97;;;30.32;36.35
20987;BME280;10652;50.306;8.570;2023-07-08T05:48:17;98155.31;;;33.04;32.16
20987;BME280;10652;50.306;8.570;2023-07-08T05:52:19;98151.63;;;35.13;29.03
20987;BME280;10652;50.306;8.570;2023-07-08T05:56:21;98145.25;;;36.87;27.43
20987;BME280;10652;50.306;8.570;2023-07-08T06:00:23;98146.06;;;37.45;26.77
20987;BME280;10652;50.306;8.570;2023-07-08T06:04:31;98152.28;;;33.52;29.06
20987;BME280;10652;50.306;8.570;2023-07-08T06:08:33;98146.97;;;30.42;31.78
20987;BME280;10652;50.306;8.570;2023-07-08T06:12:35;98151.16;;;28.18;34.11
20987;BME280;10652;50.306;8.570;2023-07-08T06:16:37;98158.88;;;26.57;35.96
20987;BME280;10652;50.306;8.570;2023-07-08T06:20:50;98152.59;;;25.41;36.96
20987;BME280;10652;50.306;8.570;2023-07-08T06:24:53;98163.03;;;24.85;38.14
20987;BME280;10652;50.306;8.570;2023-07-08T06:28:55;98159.38;;;24.60;38.11
20987;BME280;10652;50.306;8.570;2023-07-08T06:32:57;98160.25;;;24.69;37.91
20987;BME280;10652;50.306;8.570;2023-07-08T06:37:02;98165.75;;;25.11;38.74
20987;BME280;10652;50.306;8.570;2023-07-08T06:41:04;98163.63;;;25.30;37.55
20987;BME280;10652;50.306;8.570;2023-07-08T06:45:07;98176.31;;;25.12;39.91
20987;BME280;10652;50.306;8.570;2023-07-08T06:49:09;98193.75;;;25.00;42.88
20987;BME280;10652;50.306;8.570;2023-07-08T06:53:11;98193.06;;;24.54;44.11
20987;BME280;10652;50.306;8.570;2023-07-08T06:57:13;98203.97;;;24.00;46.02
20987;BME280;10652;50.306;8.570;2023-07-08T07:01:15;98207.13;;;23.41;47.56
20987;BME280;10652;50.306;8.570;2023-07-08T07:05:18;98208.75;;;22.87;48.24
20987;BME280;10652;50.306;8.570;2023-07-08T07:09:24;98212.59;;;22.56;48.44
20987;BME280;10652;50.306;8.570;2023-07-08T07:13:26;98210.78;;;22.37;51.16
20987;BME280;10652;50.306;8.570;2023-07-08T07:17:28;98216.09;;;22.08;53.15
20987;BME280;10652;50.306;8.570;2023-07-08T07:21:31;98209.31;;;21.75;55.54
20987;BME280;10652;50.306;8.570;2023-07-08T07:25:34;98205.84;;;21.44;58.25
20987;BME280;10652;50.306;8.570;2023-07-08T07:29:47;98199.25;;;21.18;59.14
20987;BME280;10652;50.306;8.570;2023-07-08T07:33:50;98198.00;;;20.92;59.73
20987;BME280;10652;50.306;8.570;2023-07-08T07:37:52;98217.44;;;20.73;62.09
20987;BME280;10652;50.306;8.570;2023-07-08T07:41:54;98224.78;;;20.60;62.84
20987;BME280;10652;50.306;8.570;2023-07-08T07:45:56;98223.06;;;20.59;61.82
20987;BME280;10652;50.306;8.570;2023-07-08T07:49:59;98229.53;;;20.56;63.24
20987;BME280;10652;50.306;8.570;2023-07-08T07:54:01;98235.09;;;20.53;64.74
20987;BME280;10652;50.306;8.570;2023-07-08T07:58:03;98221.97;;;20.61;66.04
20987;BME280;10652;50.306;8.570;2023-07-08T08:02:07;98233.56;;;20.72;68.59
20987;BME280;10652;50.306;8.570;2023-07-08T08:06:10;98215.34;;;20.77;67.35
20987;BME280;10652;50.306;8.570;2023-07-08T08:10:12;98210.56;;;20.59;66.69
20987;BME280;10652;50.306;8.570;2023-07-08T08:14:14;98194.31;;;20.42;65.96
20987;BME280;10652;50.306;8.570;2023-07-08T08:18:16;98177.53;;;20.30;66.21
20987;BME280;10652;50.306;8.570;2023-07-08T08:22:18;98161.91;;;20.26;68.10
20987;BME280;10652;50.306;8.570;2023-07-08T08:26:23;98165.00;;;20.31;67.63
20987;BME280;10652;50.306;8.570;2023-07-08T08:30:25;98164.31;;;20.70;70.27
20987;BME280;10652;50.306;8.570;2023-07-08T08:34:27;98188.78;;;21.05;70.24
20987;BME280;10652;50.306;8.570;2023-07-08T08:38:30;98211.63;;;21.49;70.89
20987;BME280;10652;50.306;8.570;2023-07-08T08:42:41;98192.69;;;21.91;62.19
20987;BME280;10652;50.306;8.570;2023-07-08T08:46:57;98190.44;;;21.86;60.24
20987;BME280;10652;50.306;8.570;2023-07-08T08:51:07;98187.94;;;22.14;56.23
20987;BME280;10652;50.306;8.570;2023-07-08T08:55:12;98187.22;;;22.60;51.50
20987;BME280;10652;50.306;8.570;2023-07-08T08:59:44;98198.81;;;23.07;50.74
20987;BME280;10652;50.306;8.570;2023-07-08T09:04:00;98213.81;;;23.64;51.15
20987;BME280;10652;50.306;8.570;2023-07-08T09:12:18;98211.72;;;24.56;48.43
20987;BME280;10652;50.306;8.570;2023-07-08T09:16:29;98216.53;;;24.88;46.36
20987;BME280;10652;50.306;8.570;2023-07-08T09:20:37;98207.88;;;25.02;44.96
20987;BME280;10652;50.306;8.570;2023-07-08T09:28:49;98208.88;;;25.01;43.53
20987;BME280;10652;50.306;8.570;2023-07-08T09:32:51;98209.56;;;25.03;43.46
20987;BME280;10652;50.306;8.570;2023-07-08T09:36:53;98207.03;;;25.02;44.32
20987;BME280;10652;50.306;8.570;2023-07-08T09:40:55;98207.56;;;25.05;45.01
20987;BME280;10652;50.306;8.570;2023-07-08T09:45:01;98212.59;;;25.08;44.17
20987;BME280;10652;50.306;8.570;2023-07-08T09:49:17;98216.38;;;25.15;44.10
20987;BME280;10652;50.306;8.570;2023-07-08T09:53:20;98215.56;;;25.23;43.68
20987;BME280;10652;50.306;8.570;2023-07-08T09:57:31;98204.16;;;25.29;43.97
20987;BME280;10652;50.306;8.570;2023-07-08T10:01:35;98198.97;;;25.35;43.58
20987;BME280;10652;50.306;8.570;2023-07-08T10:05:39;98205.06;;;25.46;43.63
20987;BME280;10652;50.306;8.570;2023-07-08T10:09:43;98203.47;;;25.53;43.70
20987;BME280;10652;50.306;8.570;2023-07-08T10:13:48;98198.09;;;25.61;42.33
20987;BME280;10652;50.306;8.570;2023-07-08T10:18:16;98196.78;;;25.73;42.30
20987;BME280;10652;50.306;8.570;2023-07-08T10:22:56;98194.66;;;25.84;40.96
20987;BME280;10652;50.306;8.570;2023-07-08T10:31:30;98197.59;;;26.15;40.46
20987;BME280;10652;50.306;8.570;2023-07-08T10:35:42;98185.47;;;26.27;39.86
20987;BME280;10652;50.306;8.570;2023-07-08T10:40:28;98191.53;;;26.38;39.05
20987;BME280;10652;50.306;8.570;2023-07-08T10:53:03;98182.78;;;26.76;37.38
20987;BME280;10652;50.306;8.570;2023-07-08T11:06:02;98181.19;;;27.14;36.54
20987;BME280;10652;50.306;8.570;2023-07-08T11:10:22;98171.72;;;27.18;36.48
20987;BME280;10652;50.306;8.570;2023-07-08T11:14:27;98167.81;;;27.29;36.13
20987;BME280;10652;50.306;8.570;2023-07-08T11:22:45;98168.44;;;27.47;35.45
20987;BME280;10652;50.306;8.570;2023-07-08T11:26:57;98170.72;;;27.58;35.48
20987;BME280;10652;50.306;8.570;2023-07-08T11:31:01;98163.09;;;27.70;35.52
20987;BME280;10652;50.306;8.570;2023-07-08T11:35:07;98158.66;;;27.77;34.18
20987;BME280;10652;50.306;8.570;2023-07-08T11:43:41;98153.69;;;27.96;33.35
20987;BME280;10652;50.306;8.570;2023-07-08T11:47:47;98150.59;;;27.99;33.47
20987;BME280;10652;50.306;8.570;2023-07-08T11:51:57;98146.34;;;28.05;33.60
20987;BME280;10652;50.306;8.570;2023-07-08T12:00:25;98155.75;;;28.32;33.01
20987;BME280;10652;50.306;8.570;2023-07-08T12:04:34;98156.72;;;28.39;34.22
20987;BME280;10652;50.306;8.570;2023-07-08T12:08:38;98141.31;;;28.48;34.17
20987;BME280;10652;50.306;8.570;2023-07-08T12:12:44;98158.72;;;28.45;33.66
20987;BME280;10652;50.306;8.570;2023-07-08T12:16:46;98163.03;;;28.54;33.14
20987;BME280;10652;50.306;8.570;2023-07-08T12:20:56;98153.66;;;28.65;32.17
20987;BME280;10652;50.306;8.570;2023-07-08T12:24:59;98147.97;;;28.74;32.50
20987;BME280;10652;50.306;8.570;2023-07-08T12:29:11;98146.41;;;28.80;32.86
20987;BME280;10652;50.306;8.570;2023-07-08T12:33:25;98144.81;;;28.85;31.24
20987;BME280;10652;50.306;8.570;2023-07-08T12:37:28;98145.75;;;28.92;31.94
20987;BME280;10652;50.306;8.570;2023-07-08T12:41:34;98143.69;;;28.95;32.52
20987;BME280;10652;50.306;8.570;2023-07-08T12:45:40;98143.16;;;28.84;32.84
20987;BME280;10652;50.306;8.570;2023-07-08T12:49:42;98142.09;;;28.85;31.54
20987;BME280;10652;50.306;8.570;2023-07-08T12:53:44;98142.22;;;28.92;33.15
20987;BME280;10652;50.306;8.570;2023-07-08T12:57:49;98137.94;;;28.98;31.91
20987;BME280;10652;50.306;8.570;2023-07-08T13:01:52;98139.25;;;29.02;31.52
20987;BME280;10652;50.306;8.570;2023-07-08T13:05:57;98139.16;;;29.10;32.15
20987;BME280;10652;50.306;8.570;2023-07-08T13:09:59;98135.44;;;29.11;31.74
20987;BME280;10652;50.306;8.570;2023-07-08T13:14:05;98129.56;;;29.07;33.07
20987;BME280;10652;50.306;8.570;2023-07-08T13:18:17;98132.63;;;29.04;32.19
20987;BME280;10652;50.306;8.570;2023-07-08T13:22:21;98133.47;;;29.05;31.91
20987;BME280;10652;50.306;8.570;2023-07-08T13:26:27;98136.06;;;28.98;33.32
20987;BME280;10652;50.306;8.570;2023-07-08T13:30:30;98138.50;;;28.93;32.21
20987;BME280;10652;50.306;8.570;2023-07-08T13:34:33;98138.25;;;29.03;31.87
20987;BME280;10652;50.306;8.570;2023-07-08T13:38:38;98133.47;;;29.05;31.66
20987;BME280;10652;50.306;8.570;2023-07-08T13:42:47;98141.03;;;29.09;31.88
20987;BME280;10652;50.306;8.570;2023-07-08T13:46:57;98134.78;;;29.09;32.47
20987;BME280;10652;50.306;8.570;2023-07-08T13:51:08;98128.41;;;29.16;31.89
20987;BME280;10652;50.306;8.570;2023-07-08T13:55:17;98126.25;;;29.26;31.59
20987;BME280;10652;50.306;8.570;2023-07-08T13:59:25;98129.69;;;29.35;32.02
20987;BME280;10652;50.306;8.570;2023-07-08T14:03:27;98129.69;;;29.35;31.80
20987;BME280;10652;50.306;8.570;2023-07-08T14:07:32;98125.59;;;29.39;30.63
20987;BME280;10652;50.306;8.570;2023-07-08T14:11:35;98131.38;;;29.36;31.55
20987;BME280;10652;50.306;8.570;2023-07-08T14:15:38;98116.66;;;29.24;32.44
20987;BME280;10652;50.306;8.570;2023-07-08T14:19:41;98113.97;;;29.24;31.49
20987;BME280;10652;50.306;8.570;2023-07-08T14:23:43;98116.81;;;29.37;30.95
20987;BME280;10652;50.306;8.570;2023-07-08T14:27:45;98113.00;;;29.46;30.54
20987;BME280;10652;50.306;8.570;2023-07-08T14:31:47;98113.88;;;29.53;31.07
20987;BME280;10652;50.306;8.570;2023-07-08T14:35:49;98110.47;;;29.59;31.91
20987;BME280;10652;50.306;8.570;2023-07-08T14:39:51;98103.81;;;29.62;31.47
20987;BME280;10652;50.306;8.570;2023-07-08T14:43:54;98099.63;;;29.59;30.83
20987;BME280;10652;50.306;8.570;2023-07-08T14:47:56;98104.03;;;29.60;31.41
20987;BME280;10652;50.306;8.570;2023-07-08T14:51:59;98106.28;;;29.57;32.05
20987;BME280;10652;50.306;8.570;2023-07-08T14:56:06;98108.78;;;29.58;31.49
20987;BME280;10652;50.306;8.570;2023-07-08T15:00:12;98098.88;;;29.65;30.34
20987;BME280;10652;50.306;8.570;2023-07-08T15:04:16;98109.31;;;29.68;31.31
20987;BME280;10652;50.306;8.570;2023-07-08T15:08:19;98101.84;;;29.70;31.45
20987;BME280;10652;50.306;8.570;2023-07-08T15:12:21;98101.63;;;29.72;30.93
20987;BME280;10652;50.306;8.570;2023-07-08T15:16:23;98096.66;;;29.75;30.82
20987;BME280;10652;50.306;8.570;2023-07-08T15:20:26;98088.53;;;29.75;31.10
20987;BME280;10652;50.306;8.570;2023-07-08T15:24:28;98090.88;;;29.78;31.83
20987;BME280;10652;50.306;8.570;2023-07-08T15:32:50;98090.22;;;29.76;32.05
20987;BME280;10652;50.306;8.570;2023-07-08T15:36:53;98094.44;;;29.79;31.90
20987;BME280;10652;50.306;8.570;2023-07-08T15:40:55;98088.53;;;29.75;31.02
20987;BME280;10652;50.306;8.570;2023-07-08T15:44:58;98087.25;;;29.71;30.61
20987;BME280;10652;50.306;8.570;2023-07-08T15:49:00;98088.19;;;29.78;30.26
20987;BME280;10652;50.306;8.570;2023-07-08T15:53:03;98080.69;;;29.81;30.58
20987;BME280;10652;50.306;8.570;2023-07-08T15:57:07;98084.06;;;29.83;30.97
20987;BME280;10652;50.306;8.570;2023-07-08T16:01:17;98086.34;;;29.86;31.26
20987;BME280;10652;50.306;8.570;2023-07-08T16:05:20;98080.50;;;29.82;31.53
20987;BME280;10652;50.306;8.570;2023-07-08T16:09:23;98069.97;;;29.72;32.11
20987;BME280;10652;50.306;8.570;2023-07-08T16:13:31;98082.22;;;29.68;31.62
20987;BME280;10652;50.306;8.570;2023-07-08T16:17:35;98080.41;;;29.75;31.59
20987;BME280;10652;50.306;8.570;2023-07-08T16:21:39;98069.41;;;29.77;32.37
20987;BME280;10652;50.306;8.570;2023-07-08T16:25:45;98068.81;;;29.60;32.07
20987;BME280;10652;50.306;8.570;2023-07-08T16:29:48;98064.13;;;29.54;31.79
20987;BME280;10652;50.306;8.570;2023-07-08T16:33:52;98063.50;;;29.52;31.95
20987;BME280;10652;50.306;8.570;2023-07-08T16:37:56;98073.56;;;29.44;32.85
20987;BME280;10652;50.306;8.570;2023-07-08T16:41:59;98070.38;;;29.33;32.79
20987;BME280;10652;50.306;8.570;2023-07-08T16:46:01;98087.16;;;29.29;33.55
20987;BME280;10652;50.306;8.570;2023-07-08T16:50:04;98075.34;;;29.15;32.56
20987;BME280;10652;50.306;8.570;2023-07-08T16:54:13;98075.25;;;29.09;32.51
20987;BME280;10652;50.306;8.570;2023-07-08T16:58:16;98076.03;;;29.03;33.58
20987;BME280;10652;50.306;8.570;2023-07-08T17:02:18;98069.94;;;29.01;33.10
20987;BME280;10652;50.306;8.570;2023-07-08T17:06:21;98071.13;;;28.98;33.96
20987;BME280;10652;50.306;8.570;2023-07-08T17:10:24;98070.09;;;28.99;34.10
20987;BME280;10652;50.306;8.570;2023-07-08T17:14:27;98067.09;;;28.94;34.01
20987;BME280;10652;50.306;8.570;2023-07-08T17:18:31;98075.78;;;28.89;33.58
20987;BME280;10652;50.306;8.570;2023-07-08T17:22:33;98074.41;;;28.79;33.68
20987;BME280;10652;50.306;8.570;2023-07-08T17:26:39;98070.19;;;28.76;34.18
20987;BME280;10652;50.306;8.570;2023-07-08T17:30:45;98082.78;;;28.69;34.07
20987;BME280;10652;50.306;8.570;2023-07-08T17:34:48;98074.56;;;28.63;34.62
20987;BME280;10652;50.306;8.570;2023-07-08T17:38:50;98076.06;;;28.51;34.24
20987;BME280;10652;50.306;8.570;2023-07-08T17:42:54;98081.00;;;28.47;34.55
20987;BME280;10652;50.306;8.570;2023-07-08T17:46:58;98082.69;;;28.48;34.66
20987;BME280;10652;50.306;8.570;2023-07-08T17:51:02;98080.34;;;28.45;35.13
20987;BME280;10652;50.306;8.570;2023-07-08T17:55:04;98077.97;;;28.42;34.65
20987;BME280;10652;50.306;8.570;2023-07-08T17:59:13;98069.56;;;28.37;35.29
20987;BME280;10652;50.306;8.570;2023-07-08T18:03:16;98064.84;;;28.39;34.10
20987;BME280;10652;50.306;8.570;2023-07-08T18:07:18;98073.22;;;28.44;33.53
20987;BME280;10652;50.306;8.570;2023-07-08T18:11:23;98072.94;;;28.39;34.33
20987;BME280;10652;50.306;8.570;2023-07-08T18:15:29;98074.06;;;28.30;35.16
20987;BME280;10652;50.306;8.570;2023-07-08T18:19:31;98078.97;;;28.26;35.57
20987;BME280;10652;50.306;8.570;2023-07-08T18:23:34;98084.63;;;28.17;36.05
20987;BME280;10652;50.306;8.570;2023-07-08T18:27:38;98091.84;;;28.01;36.50
20987;BME280;10652;50.306;8.570;2023-07-08T18:31:40;98097.34;;;27.85;37.66
20987;BME280;10652;50.306;8.570;2023-07-08T18:35:46;98094.81;;;27.61;38.83
20987;BME280;10652;50.306;8.570;2023-07-08T18:39:49;98112.16;;;27.28;39.69
20987;BME280;10652;50.306;8.570;2023-07-08T18:43:51;98117.53;;;26.97;40.72
20987;BME280;10652;50.306;8.570;2023-07-08T18:47:53;98113.00;;;26.81;40.95
20987;BME280;10652;50.306;8.570;2023-07-08T18:51:56;98108.97;;;26.69;40.54
20987;BME280;10652;50.306;8.570;2023-07-08T18:55:58;98114.91;;;26.56;40.56
20987;BME280;10652;50.306;8.570;2023-07-08T19:00:00;98121.16;;;26.41;40.83
20987;BME280;10652;50.306;8.570;2023-07-08T19:04:02;98131.44;;;26.29;40.79
20987;BME280;10652;50.306;8.570;2023-07-08T19:08:07;98145.06;;;26.19;41.19
20987;BME280;10652;50.306;8.570;2023-07-08T19:12:09;98138.66;;;26.12;41.29
20987;BME280;10652;50.306;8.570;2023-07-08T19:16:13;98147.91;;;26.10;41.15
20987;BME280;10652;50.306;8.570;2023-07-08T19:20:16;98154.16;;;26.10;41.33
20987;BME280;10652;50.306;8.570;2023-07-08T19:24:21;98157.97;;;26.08;41.46
20987;BME280;10652;50.306;8.570;2023-07-08T19:28:43;98162.56;;;26.07;41.25
20987;BME280;10652;50.306;8.570;2023-07-08T19:32:57;98169.78;;;26.07;40.68
20987;BME280;10652;50.306;8.570;2023-07-08T19:37:10;98168.25;;;26.04;40.30
20987;BME280;10652;50.306;8.570;2023-07-08T19:41:28;98180.84;;;25.96;41.39
20987;BME280;10652;50.306;8.570;2023-07-08T19:45:37;98183.34;;;25.81;41.55
20987;BME280;10652;50.306;8.570;2023-07-08T19:49:39;98193.75;;;25.68;41.20
20987;BME280;10652;50.306;8.570;2023-07-08T19:53:41;98199.59;;;25.55;41.26
20987;BME280;10652;50.306;8.570;2023-07-08T19:57:46;98202.38;;;25.46;39.99
20987;BME280;10652;50.306;8.570;2023-07-08T20:01:48;98202.38;;;25.46;38.58
20987;BME280;10652;50.306;8.570;2023-07-08T20:05:51;98194.63;;;25.42;38.82
20987;BME280;10652;50.306;8.570;2023-07-08T20:09:54;98212.13;;;25.38;38.31
20987;BME280;10652;50.306;8.570;2023-07-08T20:13:57;98212.75;;;25.32;38.08
20987;BME280;10652;50.306;8.570;2023-07-08T20:17:59;98234.38;;;25.23;38.36
20987;BME280;10652;50.306;8.570;2023-07-08T20:22:02;98240.84;;;25.12;37.02
20987;BME280;10652;50.306;8.570;2023-07-08T20:26:05;98242.50;;;25.05;36.98
20987;BME280;10652;50.306;8.570;2023-07-08T20:30:19;98251.91;;;25.01;36.63
20987;BME280;10652;50.306;8.570;2023-07-08T20:34:22;98261.28;;;24.97;36.85
20987;BME280;10652;50.306;8.570;2023-07-08T20:38:24;98275.00;;;24.94;38.27
20987;BME280;10652;50.306;8.570;2023-07-08T20:42:26;98277.03;;;24.92;39.03
20987;BME280;10652;50.306;8.570;2023-07-08T20:46:28;98279.34;;;24.87;39.20
20987;BME280;10652;50.306;8.570;2023-07-08T20:50:30;98276.25;;;24.82;40.40
20987;BME280;10652;50.306;8.570;2023-07-08T20:54:32;98276.03;;;24.75;40.88
20987;BME280;10652;50.306;8.570;2023-07-08T20:58:34;98267.28;;;24.73;40.16
20987;BME280;10652;50.306;8.570;2023-07-08T21:02:37;98270.13;;;24.72;39.95
20987;BME280;10652;50.306;8.570;2023-07-08T21:06:39;98269.25;;;24.71;40.30
20987;BME280;10652;50.306;8.570;2023-07-08T21:10:41;98248.94;;;24.69;40.36
20987;BME280;10652;50.306;8.570;2023-07-08T21:14:43;98248.94;;;24.69;40.50
20987;BME280;10652;50.306;8.570;2023-07-08T21:18:47;98248.41;;;24.65;40.43
20987;BME280;10652;50.306;8.570;2023-07-08T21:22:50;98263.69;;;24.65;40.88
20987;BME280;10652;50.306;8.570;2023-07-08T21:26:54;98259.25;;;24.55;41.61
20987;BME280;10652;50.306;8.570;2023-07-08T21:30:57;98249.50;;;24.37;42.50
20987;BME280;10652;50.306;8.570;2023-07-08T21:34:59;98242.69;;;24.25;42.30
20987;BME280;10652;50.306;8.570;2023-07-08T21:39:08;98242.00;;;24.13;42.85
20987;BME280;10652;50.306;8.570;2023-07-08T21:43:18;98246.00;;;24.09;43.00
20987;BME280;10652;50.306;8.570;2023-07-08T21:47:21;98252.06;;;24.11;42.96
20987;BME280;10652;50.306;8.570;2023-07-08T21:51:28;98240.63;;;24.09;43.85
20987;BME280;10652;50.306;8.570;2023-07-08T21:55:31;98243.84;;;23.95;44.46
20987;BME280;10652;50.306;8.570;2023-07-08T21:59:33;98241.63;;;23.63;45.39
20987;BME280;10652;50.306;8.570;2023-07-08T22:03:35;98248.34;;;23.40;46.37
20987;BME280;10652;50.306;8.570;2023-07-08T22:07:37;98239.34;;;23.31;46.81
20987;BME280;10652;50.306;8.570;2023-07-08T22:11:39;98240.22;;;23.22;47.65
20987;BME280;10652;50.306;8.570;2023-07-08T22:15:41;98239.03;;;23.07;48.02
20987;BME280;10652;50.306;8.570;2023-07-08T22:19:43;98227.59;;;22.86;48.33
20987;BME280;10652;50.306;8.570;2023-07-08T22:23:46;98235.94;;;22.83;49.28
20987;BME280;10652;50.306;8.570;2023-07-08T22:27:49;98229.88;;;22.80;49.77